Time;durP1;ratioP1;P1;durP2;ratioP2;P2;SDS_P1;SDS_P2;PMS_P1;PMS_P2;Temp;Humidity;BMP_temperature;BMP_pressure;BME280_temperature;BME280_humidity;BME280_pressure;Samples;Min_cycle;Max_cycle;Signal;HPM_P1;HPM_P2
2023/08/01 00:01:29;;;;;;;0.20;0.20;;;17.30;99.90;;;;;;5069816;28;20816;-83
2023/08/01 00:03:55;;;;;;;0.20;0.20;;;17.00;99.90;;;;;;5069549;28;20115;-82
2023/08/01 00:06:21;;;;;;;0.10;0.10;;;17.20;99.90;;;;;;5050091;28;20191;-82
2023/08/01 00:08:48;;;;;;;0.15;0.15;;;17.30;99.90;;;;;;5054872;28;20052;-81
2023/08/01 00:11:16;;;;;;;0.20;0.20;;;17.20;99.90;;;;;;5055432;28;20358;-83
2023/08/01 00:13:43;;;;;;;0.13;0.13;;;17.00;99.90;;;;;;5071736;28;20508;-82
2023/08/01 00:16:09;;;;;;;0.13;0.13;;;17.20;99.90;;;;;;5072688;28;20044;-83
2023/08/01 00:18:35;;;;;;;0.10;0.10;;;17.20;99.90;;;;;;5052610;28;20067;-83
2023/08/01 00:21:02;;;;;;;0.20;0.20;;;17.00;99.90;;;;;;5054840;28;20045;-82
2023/08/01 00:23:27;;;;;;;0.20;0.20;;;17.00;99.90;;;;;;5053266;28;20047;-82
2023/08/01 00:25:53;;;;;;;0.10;0.10;;;17.20;99.90;;;;;;5054346;28;20056;-82
2023/08/01 00:28:19;;;;;;;0.20;0.20;;;17.00;99.90;;;;;;5051601;28;21496;-82
2023/08/01 00:30:45;;;;;;;0.17;0.17;;;17.20;99.90;;;;;;5067387;28;20570;-82
2023/08/01 00:33:11;;;;;;;0.20;0.20;;;17.00;99.90;;;;;;5070943;28;20724;-82
2023/08/01 00:35:36;;;;;;;0.20;0.20;;;17.00;99.90;;;;;;5053903;28;20040;-82
2023/08/01 00:38:02;;;;;;;0.20;0.20;;;17.10;99.90;;;;;;5045139;28;20115;-82
2023/08/01 00:40:31;;;;;;;0.20;0.20;;;17.00;99.90;;;;;;5053452;28;20040;-82
2023/08/01 00:42:58;;;;;;;0.10;0.10;;;17.10;99.90;;;;;;5055284;28;20377;-82
2023/08/01 00:45:24;;;;;;;0.20;0.20;;;17.00;99.90;;;;;;5054908;28;20082;-83
2023/08/01 00:47:55;;;;;;;0.10;0.10;;;17.10;99.90;;;;;;5053696;28;20385;-82
2023/08/01 00:50:22;;;;;;;0.20;0.20;;;16.90;99.90;;;;;;5072813;28;20044;-82
2023/08/01 00:52:50;;;;;;;0.20;0.20;;;17.00;99.90;;;;;;5072443;28;20466;-83
2023/08/01 00:55:16;;;;;;;0.10;0.10;;;17.00;99.90;;;;;;5052445;28;20048;-82
2023/08/01 00:57:42;;;;;;;0.20;0.20;;;17.00;99.90;;;;;;5072761;28;20046;-82
2023/08/01 01:00:08;;;;;;;0.10;0.10;;;16.80;99.90;;;;;;5052364;28;20114;-83
2023/08/01 01:02:35;;;;;;;0.20;0.20;;;17.00;99.90;;;;;;5052371;28;20036;-82
2023/08/01 01:05:02;;;;;;;0.15;0.15;;;17.00;99.90;;;;;;5070880;28;20688;-82
2023/08/01 01:07:29;;;;;;;0.20;0.20;;;17.00;99.90;;;;;;5052456;28;22152;-83
2023/08/01 01:09:55;;;;;;;0.20;0.20;;;16.80;99.90;;;;;;5065624;28;20044;-83
2023/08/01 01:12:20;;;;;;;0.20;0.20;;;17.00;99.90;;;;;;5066640;28;20206;-82
2023/08/01 01:14:46;;;;;;;0.20;0.20;;;16.80;99.90;;;;;;5050502;28;20099;-82
2023/08/01 01:17:12;;;;;;;0.20;0.20;;;16.90;99.90;;;;;;5045831;28;20053;-81
2023/08/01 01:19:38;;;;;;;0.20;0.20;;;16.80;99.90;;;;;;5048438;28;20132;-81
2023/08/01 01:22:06;;;;;;;0.10;0.10;;;16.90;99.90;;;;;;5054425;28;20068;-81
2023/08/01 01:24:33;;;;;;;0.20;0.20;;;16.70;99.90;;;;;;5052271;28;20050;-82
2023/08/01 01:26:59;;;;;;;0.20;0.20;;;16.70;99.90;;;;;;5052366;28;20080;-82
2023/08/01 01:29:28;;;;;;;0.20;0.20;;;16.70;99.90;;;;;;5052449;28;20044;-82
2023/08/01 01:31:54;;;;;;;0.15;0.15;;;16.60;99.90;;;;;;5054345;28;20059;-81
2023/08/01 01:34:21;;;;;;;0.20;0.20;;;16.70;99.90;;;;;;5051955;28;20043;-82
2023/08/01 01:36:46;;;;;;;0.20;0.20;;;16.70;99.90;;;;;;5048269;28;20044;-82
2023/08/01 01:39:12;;;;;;;0.20;0.20;;;16.70;99.90;;;;;;5047708;28;20567;-82
2023/08/01 01:41:38;;;;;;;0.10;0.10;;;16.60;99.90;;;;;;5053119;28;20097;-82
2023/08/01 01:44:03;;;;;;;0.20;0.20;;;16.60;99.90;;;;;;5050732;28;20045;-82
2023/08/01 01:46:29;;;;;;;0.20;0.20;;;16.50;99.90;;;;;;5069322;28;20037;-83
2023/08/01 01:48:55;;;;;;;0.20;0.20;;;16.60;99.90;;;;;;5060736;28;20047;-83
2023/08/01 01:51:28;;;;;;;0.20;0.20;;;16.60;99.90;;;;;;5050987;28;20036;-82
2023/08/01 01:53:54;;;;;;;0.20;0.20;;;16.50;99.90;;;;;;5064389;28;20503;-83
2023/08/01 01:56:19;;;;;;;0.10;0.10;;;16.40;99.90;;;;;;5071656;28;20064;-82
2023/08/01 01:58:45;;;;;;;0.20;0.20;;;16.60;99.90;;;;;;5069563;28;20113;-83
2023/08/01 02:01:11;;;;;;;0.10;0.10;;;16.40;99.90;;;;;;5070509;28;20087;-82
2023/08/01 02:03:36;;;;;;;0.20;0.20;;;16.40;99.90;;;;;;5052515;28;20036;-82
2023/08/01 02:06:05;;;;;;;0.10;0.10;;;16.40;99.90;;;;;;5052566;28;20522;-82
2023/08/01 02:08:31;;;;;;;0.20;0.20;;;16.50;99.90;;;;;;5064464;28;20056;-82
2023/08/01 02:10:58;;;;;;;0.20;0.20;;;16.50;99.90;;;;;;5053125;28;20400;-82
2023/08/01 02:13:25;;;;;;;0.20;0.20;;;16.50;99.90;;;;;;5069968;28;20036;-83
2023/08/01 02:15:51;;;;;;;0.20;0.20;;;16.40;99.90;;;;;;5052303;28;20041;-84
2023/08/01 02:18:17;;;;;;;0.20;0.20;;;16.50;99.90;;;;;;5050618;28;20036;-84
2023/08/01 02:20:42;;;;;;;0.20;0.20;;;16.30;99.90;;;;;;5065664;28;20036;-84
2023/08/01 02:23:08;;;;;;;0.10;0.10;;;16.40;99.90;;;;;;5051848;28;20037;-83
2023/08/01 02:25:41;;;;;;;0.20;0.20;;;16.20;99.90;;;;;;5070656;28;20040;-84
2023/08/01 02:28:07;;;;;;;0.17;0.17;;;16.20;99.90;;;;;;5048446;28;20498;-85
2023/08/01 02:30:34;;;;;;;0.20;0.20;;;16.20;99.90;;;;;;5049609;28;20087;-83
2023/08/01 02:33:00;;;;;;;0.10;0.10;;;16.30;99.90;;;;;;5049101;28;20123;-83
2023/08/01 02:35:26;;;;;;;0.10;0.10;;;16.20;99.90;;;;;;5060353;28;20049;-83
2023/08/01 02:37:51;;;;;;;0.10;0.10;;;16.00;99.90;;;;;;5061581;28;20056;-84
2023/08/01 02:40:17;;;;;;;0.20;0.20;;;16.00;99.90;;;;;;5049936;28;20507;-83
2023/08/01 02:42:43;;;;;;;0.20;0.20;;;16.00;99.90;;;;;;5061705;28;20067;-84
2023/08/01 02:45:09;;;;;;;0.20;0.20;;;16.00;99.90;;;;;;5068582;28;20698;-84
2023/08/01 02:47:34;;;;;;;0.20;0.20;;;16.00;99.90;;;;;;5050151;28;20495;-83
2023/08/01 02:50:00;;;;;;;0.20;0.20;;;16.00;99.90;;;;;;5051636;28;20114;-83
2023/08/01 02:52:26;;;;;;;0.20;0.20;;;16.00;99.90;;;;;;5051163;28;20036;-84
2023/08/01 02:54:51;;;;;;;0.20;0.20;;;16.00;99.90;;;;;;5050520;28;20407;-84
2023/08/01 02:57:17;;;;;;;0.20;0.20;;;16.00;99.90;;;;;;5051687;28;20040;-83
2023/08/01 02:59:42;;;;;;;0.20;0.20;;;16.00;99.90;;;;;;5066099;28;20056;-84
2023/08/01 03:02:08;;;;;;;0.20;0.20;;;15.90;99.90;;;;;;5046946;28;20427;-84
2023/08/01 03:04:34;;;;;;;0.10;0.10;;;16.10;99.90;;;;;;5049037;28;20028;-83
2023/08/01 03:07:00;;;;;;;0.10;0.10;;;15.90;99.90;;;;;;5067060;28;20070;-84
2023/08/01 03:09:25;;;;;;;0.20;0.20;;;16.10;99.90;;;;;;5066748;28;20037;-84
2023/08/01 03:11:51;;;;;;;0.20;0.20;;;16.00;99.90;;;;;;5065272;28;20045;-84
2023/08/01 03:14:17;;;;;;;0.10;0.10;;;16.00;99.90;;;;;;5047003;28;20091;-83
2023/08/01 03:16:43;;;;;;;0.20;0.20;;;16.00;99.90;;;;;;5045807;28;20044;-83
2023/08/01 03:19:08;;;;;;;0.20;0.20;;;15.90;99.90;;;;;;5069462;28;20067;-83
2023/08/01 03:21:34;;;;;;;0.20;0.20;;;15.90;99.90;;;;;;5049674;28;20374;-84
2023/08/01 03:24:01;;;;;;;0.20;0.20;;;15.90;99.90;;;;;;5045800;28;20051;-85
2023/08/01 03:26:30;;;;;;;0.17;0.17;;;16.00;99.90;;;;;;5056792;28;20584;-85
2023/08/01 03:28:56;;;;;;;0.20;0.20;;;16.00;99.90;;;;;;5047653;28;20483;-85
2023/08/01 03:31:24;;;;;;;0.20;0.20;;;16.00;99.90;;;;;;5068942;28;20085;-83
2023/08/01 03:33:50;;;;;;;0.10;0.10;;;16.00;99.90;;;;;;5064118;28;20090;-83
2023/08/01 03:36:16;;;;;;;0.10;0.10;;;15.90;99.90;;;;;;5068247;28;20040;-83
2023/08/01 03:38:42;;;;;;;0.20;0.20;;;16.10;99.90;;;;;;5049656;28;20037;-84
2023/08/01 03:41:07;;;;;;;0.15;0.15;;;15.90;99.90;;;;;;5048248;28;20052;-83
2023/08/01 03:43:33;;;;;;;0.20;0.20;;;15.90;99.90;;;;;;5066804;28;20029;-83
2023/08/01 03:45:59;;;;;;;0.10;0.10;;;15.90;99.90;;;;;;5064157;28;20456;-84
2023/08/01 03:48:25;;;;;;;0.20;0.20;;;16.00;99.90;;;;;;5047975;28;20037;-84
2023/08/01 03:50:50;;;;;;;0.10;0.10;;;15.90;99.90;;;;;;5049446;28;20048;-83
2023/08/01 03:53:16;;;;;;;0.20;0.20;;;16.00;99.90;;;;;;5042881;28;20042;-84
2023/08/01 03:55:44;;;;;;;0.20;0.20;;;15.90;99.90;;;;;;5045667;28;20043;-83
2023/08/01 03:58:10;;;;;;;0.10;0.10;;;15.80;99.90;;;;;;5061714;28;20063;-84
2023/08/01 04:00:35;;;;;;;0.13;0.13;;;16.10;99.90;;;;;;5051088;28;20049;-84
2023/08/01 04:03:01;;;;;;;0.13;0.13;;;15.90;99.90;;;;;;5063023;28;20515;-84
2023/08/01 04:05:30;;;;;;;0.10;0.10;;;16.10;99.90;;;;;;5037981;28;20103;-84
2023/08/01 04:07:56;;;;;;;0.20;0.20;;;15.80;99.90;;;;;;5042190;28;20155;-84
2023/08/01 04:10:22;;;;;;;0.10;0.10;;;16.10;99.90;;;;;;5066766;28;20403;-84
2023/08/01 04:12:48;;;;;;;0.10;0.10;;;16.00;99.90;;;;;;5064856;28;20048;-84
2023/08/01 04:15:14;;;;;;;0.10;0.10;;;15.90;99.90;;;;;;5041655;28;20056;-84
2023/08/01 04:17:40;;;;;;;0.10;0.10;;;15.70;99.90;;;;;;5050206;28;20072;-84
2023/08/01 04:20:06;;;;;;;0.10;0.10;;;16.00;99.90;;;;;;5051062;28;20067;-84
2023/08/01 04:22:32;;;;;;;0.20;0.20;;;15.60;99.90;;;;;;5051244;28;20040;-84
2023/08/01 04:24:57;;;;;;;0.20;0.20;;;15.80;99.90;;;;;;5068419;28;20045;-84
2023/08/01 04:27:23;;;;;;;0.10;0.10;;;15.80;99.90;;;;;;5050692;28;20407;-83
2023/08/01 04:29:49;;;;;;;0.20;0.20;;;15.70;99.90;;;;;;5070077;28;20411;-84
2023/08/01 04:32:15;;;;;;;0.20;0.20;;;15.90;99.90;;;;;;5050839;28;20044;-84
2023/08/01 04:34:41;;;;;;;0.10;0.10;;;15.60;99.90;;;;;;5047260;28;20049;-83
2023/08/01 04:37:07;;;;;;;0.15;0.15;;;15.90;99.90;;;;;;5051949;28;20098;-85
2023/08/01 04:39:33;;;;;;;0.20;0.20;;;15.90;99.90;;;;;;5034983;28;20045;-84
2023/08/01 04:41:59;;;;;;;0.20;0.20;;;15.90;99.90;;;;;;5067877;28;20076;-83
2023/08/01 04:44:25;;;;;;;0.10;0.10;;;15.70;99.90;;;;;;5067421;28;20071;-84
2023/08/01 04:46:50;;;;;;;0.20;0.20;;;15.70;99.90;;;;;;5064500;28;20052;-84
2023/08/01 04:49:16;;;;;;;0.20;0.20;;;15.90;99.90;;;;;;5048936;28;20037;-84
2023/08/01 04:51:41;;;;;;;0.10;0.10;;;15.70;99.90;;;;;;5045721;28;20036;-83
2023/08/01 04:54:07;;;;;;;0.15;0.15;;;15.80;99.90;;;;;;5065146;28;20040;-84
2023/08/01 04:56:33;;;;;;;0.20;0.20;;;15.70;99.90;;;;;;5048502;28;20037;-84
2023/08/01 04:58:59;;;;;;;0.10;0.10;;;15.80;99.90;;;;;;5069226;28;20451;-84
2023/08/01 05:01:24;;;;;;;0.10;0.10;;;15.80;99.90;;;;;;5053485;28;20045;-84
2023/08/01 05:03:50;;;;;;;0.20;0.20;;;15.90;99.90;;;;;;5053827;28;20063;-81
2023/08/01 05:06:15;;;;;;;0.13;0.13;;;16.00;99.90;;;;;;5047697;28;20059;-82
2023/08/01 05:08:41;;;;;;;0.20;0.20;;;16.00;99.90;;;;;;5072286;28;20546;-82
2023/08/01 05:11:07;;;;;;;0.10;0.10;;;15.90;99.90;;;;;;5053596;28;20036;-81
2023/08/01 05:13:32;;;;;;;0.10;0.10;;;15.90;99.90;;;;;;5072018;28;20037;-82
2023/08/01 05:15:58;;;;;;;0.10;0.10;;;15.90;99.90;;;;;;5054185;28;20131;-81
2023/08/01 05:18:24;;;;;;;0.20;0.20;;;16.00;99.90;;;;;;5054139;28;20403;-82
2023/08/01 05:20:49;;;;;;;0.10;0.10;;;16.10;99.90;;;;;;5073051;28;20044;-81
2023/08/01 05:23:15;;;;;;;0.10;0.10;;;16.10;99.90;;;;;;5071775;28;20044;-81
2023/08/01 05:25:41;;;;;;;0.20;0.20;;;16.30;99.90;;;;;;5049257;28;20049;-82
2023/08/01 05:28:07;;;;;;;0.20;0.20;;;16.30;99.90;;;;;;5067088;28;20125;-82
2023/08/01 05:30:32;;;;;;;0.10;0.10;;;16.20;99.90;;;;;;5044127;28;20070;-83
2023/08/01 05:32:58;;;;;;;0.20;0.20;;;16.40;99.90;;;;;;5066710;28;20090;-83
2023/08/01 05:35:23;;;;;;;0.20;0.20;;;16.30;99.90;;;;;;5052892;28;20043;-84
2023/08/01 05:37:49;;;;;;;0.20;0.20;;;16.20;99.90;;;;;;5051921;28;20043;-84
2023/08/01 05:40:15;;;;;;;0.20;0.20;;;16.20;99.90;;;;;;5068501;28;20036;-83
2023/08/01 05:42:40;;;;;;;0.10;0.10;;;16.20;99.90;;;;;;5058658;28;20045;-83
2023/08/01 05:45:07;;;;;;;0.10;0.10;;;16.30;99.90;;;;;;5053805;28;20048;-83
2023/08/01 05:47:32;;;;;;;0.20;0.20;;;16.10;99.90;;;;;;5037157;28;20045;-84
2023/08/01 05:49:58;;;;;;;0.20;0.20;;;16.20;99.90;;;;;;5057719;28;20512;-84
2023/08/01 05:52:24;;;;;;;0.10;0.10;;;16.10;99.90;;;;;;5065648;28;20037;-83
2023/08/01 05:54:49;;;;;;;0.13;0.13;;;16.20;99.90;;;;;;5068768;28;20111;-84
2023/08/01 05:57:15;;;;;;;0.10;0.10;;;16.00;99.90;;;;;;5047692;28;20495;-83
2023/08/01 05:59:41;;;;;;;0.10;0.10;;;16.00;99.90;;;;;;5046023;28;20067;-83
2023/08/01 06:02:07;;;;;;;0.10;0.10;;;16.00;99.90;;;;;;5050460;28;20048;-83
2023/08/01 06:04:33;;;;;;;0.20;0.20;;;16.10;99.90;;;;;;5056775;28;20040;-82
2023/08/01 06:06:58;;;;;;;0.10;0.10;;;16.00;99.90;;;;;;5046698;28;20048;-84
2023/08/01 06:09:25;;;;;;;0.20;0.20;;;16.20;99.90;;;;;;5042207;28;20042;-83
2023/08/01 06:11:50;;;;;;;0.10;0.10;;;16.30;99.90;;;;;;5051274;28;20032;-82
2023/08/01 06:14:17;;;;;;;0.10;0.10;;;16.10;99.90;;;;;;5039435;28;20358;-83
2023/08/01 06:16:42;;;;;;;0.20;0.20;;;16.10;99.90;;;;;;5036818;28;20066;-83
2023/08/01 06:19:08;;;;;;;0.10;0.10;;;16.10;99.90;;;;;;5062405;28;20041;-81
2023/08/01 06:21:34;;;;;;;0.15;0.15;;;16.00;99.90;;;;;;5064624;28;20037;-82
2023/08/01 06:24:00;;;;;;;0.20;0.20;;;16.20;99.90;;;;;;5045923;28;20037;-82
2023/08/01 06:26:26;;;;;;;0.10;0.10;;;16.10;99.90;;;;;;5044019;28;20054;-82
2023/08/01 06:28:53;;;;;;;0.20;0.20;;;16.10;99.90;;;;;;5065309;28;20123;-82
2023/08/01 06:31:19;;;;;;;0.20;0.20;;;16.00;99.90;;;;;;5052514;28;20064;-83
2023/08/01 06:33:45;;;;;;;0.17;0.17;;;16.00;99.90;;;;;;5049320;28;20518;-82
2023/08/01 06:36:11;;;;;;;0.10;0.10;;;16.00;99.90;;;;;;5068557;28;20045;-83
2023/08/01 06:38:36;;;;;;;0.20;0.20;;;16.00;99.90;;;;;;5069717;28;20415;-83
2023/08/01 06:41:03;;;;;;;0.20;0.20;;;16.10;99.90;;;;;;5051985;28;20036;-83
2023/08/01 06:43:28;;;;;;;0.20;0.20;;;16.20;99.90;;;;;;5050969;28;20051;-82
2023/08/01 06:45:54;;;;;;;0.17;0.17;;;16.10;99.90;;;;;;5051972;28;20037;-83
2023/08/01 06:48:20;;;;;;;0.20;0.20;;;16.20;99.90;;;;;;5050125;28;20109;-82
2023/08/01 06:50:45;;;;;;;0.20;0.20;;;16.10;99.90;;;;;;5053450;28;20044;-83
2023/08/01 06:53:11;;;;;;;0.20;0.20;;;16.20;99.90;;;;;;5069458;28;20154;-83
2023/08/01 06:55:37;;;;;;;0.10;0.10;;;16.00;99.90;;;;;;5052018;28;20071;-83
2023/08/01 06:58:03;;;;;;;0.20;0.20;;;16.10;99.90;;;;;;5049950;28;20061;-82
2023/08/01 07:00:28;;;;;;;0.20;0.20;;;16.00;99.90;;;;;;5046059;28;20103;-82
2023/08/01 07:02:54;;;;;;;0.10;0.10;;;16.20;99.90;;;;;;5046972;28;20106;-82
2023/08/01 07:05:20;;;;;;;0.10;0.10;;;16.20;99.90;;;;;;5045515;28;20440;-84
2023/08/01 07:07:46;;;;;;;0.20;0.20;;;16.20;99.90;;;;;;5029174;28;20056;-83
2023/08/01 07:10:11;;;;;;;0.20;0.20;;;16.20;99.90;;;;;;5042042;28;20028;-81
2023/08/01 07:12:40;;;;;;;0.20;0.20;;;16.40;99.90;;;;;;5039666;28;20059;-83
2023/08/01 07:15:07;;;;;;;0.20;0.20;;;16.20;99.90;;;;;;5038893;28;20483;-83
2023/08/01 07:17:33;;;;;;;0.10;0.10;;;16.20;99.90;;;;;;5037179;28;20037;-81
2023/08/01 07:19:58;;;;;;;0.20;0.20;;;16.40;99.90;;;;;;5036828;28;20041;-80
2023/08/01 07:22:24;;;;;;;0.20;0.20;;;16.30;99.90;;;;;;5038242;28;20120;-81
2023/08/01 07:24:54;;;;;;;0.20;0.20;;;16.30;99.90;;;;;;5032751;28;20073;-84
2023/08/01 07:27:20;;;;;;;0.20;0.20;;;16.50;99.90;;;;;;5041509;28;20072;-76
2023/08/01 07:29:46;;;;;;;0.15;0.15;;;16.30;99.90;;;;;;5041766;28;20072;-77
2023/08/01 07:32:11;;;;;;;0.20;0.20;;;16.40;99.90;;;;;;5039366;28;20404;-77
2023/08/01 07:34:37;;;;;;;0.20;0.20;;;16.60;99.90;;;;;;5043201;28;20500;-76
2023/08/01 07:37:03;;;;;;;0.10;0.10;;;16.60;99.90;;;;;;5047790;28;20106;-76
2023/08/01 07:39:29;;;;;;;0.10;0.10;;;16.60;99.90;;;;;;5046847;28;20132;-75
2023/08/01 07:41:57;;;;;;;0.20;0.20;;;16.70;99.90;;;;;;5047761;28;20116;-79
2023/08/01 07:44:23;;;;;;;0.10;0.10;;;16.70;99.90;;;;;;5045793;28;20557;-76
2023/08/01 07:46:49;;;;;;;0.17;0.17;;;16.70;99.90;;;;;;5046248;28;20124;-76
2023/08/01 07:49:14;;;;;;;0.20;0.20;;;16.80;99.90;;;;;;5046844;28;20484;-76
2023/08/01 07:51:40;;;;;;;0.20;0.20;;;16.80;99.90;;;;;;5048432;28;20036;-77
2023/08/01 07:54:06;;;;;;;0.20;0.20;;;16.70;99.90;;;;;;5042013;28;20041;-77
2023/08/01 07:56:31;;;;;;;0.20;0.20;;;16.70;99.90;;;;;;5043084;28;20041;-77
2023/08/01 07:58:57;;;;;;;0.20;0.20;;;16.60;99.90;;;;;;5033357;28;20549;-76
2023/08/01 08:01:23;;;;;;;0.10;0.10;;;16.50;99.90;;;;;;5036459;28;20480;-77
2023/08/01 08:03:48;;;;;;;0.20;0.20;;;16.60;99.90;;;;;;5042456;28;20055;-77
2023/08/01 08:06:14;;;;;;;0.20;0.20;;;16.60;99.90;;;;;;5046448;28;20063;-76
2023/08/01 08:08:40;;;;;;;0.17;0.17;;;16.80;99.90;;;;;;5045284;28;20045;-78
2023/08/01 08:11:06;;;;;;;0.20;0.20;;;16.70;99.90;;;;;;5045447;28;20048;-77
2023/08/01 08:13:31;;;;;;;0.13;0.13;;;16.90;99.90;;;;;;5046788;28;20041;-77
2023/08/01 08:15:58;;;;;;;0.10;0.10;;;16.80;99.90;;;;;;5046601;28;20072;-77
2023/08/01 08:18:24;;;;;;;0.20;0.20;;;16.90;99.90;;;;;;5042519;28;20040;-77
2023/08/01 08:20:50;;;;;;;0.15;0.15;;;17.00;99.90;;;;;;5041244;28;20049;-78
2023/08/01 08:23:16;;;;;;;0.10;0.10;;;17.00;99.90;;;;;;5038702;28;21060;-78
2023/08/01 08:25:46;;;;;;;0.20;0.20;;;17.00;99.90;;;;;;5036521;28;20048;-78
2023/08/01 08:28:12;;;;;;;0.20;0.20;;;17.10;99.90;;;;;;5038882;28;20079;-77
2023/08/01 08:30:39;;;;;;;0.20;0.20;;;17.10;99.90;;;;;;5043182;28;20523;-77
2023/08/01 08:33:06;;;;;;;0.20;0.20;;;17.20;99.90;;;;;;5046008;28;20049;-77
2023/08/01 08:35:34;;;;;;;0.20;0.20;;;17.10;99.90;;;;;;5035356;28;20045;-77
2023/08/01 08:38:03;;;;;;;0.20;0.20;;;17.10;99.90;;;;;;5052808;28;20063;-77
2023/08/01 08:40:33;;;;;;;0.20;0.20;;;17.00;99.90;;;;;;5049738;28;20057;-77
2023/08/01 08:43:03;;;;;;;0.20;0.20;;;17.00;99.90;;;;;;5042214;28;20060;-77
2023/08/01 08:45:33;;;;;;;0.20;0.20;;;17.00;99.90;;;;;;5041942;28;20064;-78
2023/08/01 08:48:07;;;;;;;0.20;0.20;;;16.90;99.90;;;;;;5040963;28;20480;-77
2023/08/01 08:50:35;;;;;;;0.10;0.10;;;16.90;99.90;;;;;;5040656;28;20091;-76
2023/08/01 08:53:01;;;;;;;0.20;0.20;;;16.80;99.90;;;;;;5033026;28;20515;-77
2023/08/01 08:55:28;;;;;;;0.20;0.20;;;16.70;99.90;;;;;;5038671;28;21348;-76
2023/08/01 08:57:55;;;;;;;0.20;0.20;;;16.70;99.90;;;;;;5051189;28;20691;-77
2023/08/01 09:00:21;;;;;;;0.10;0.10;;;16.70;99.90;;;;;;5041320;28;20523;-77
2023/08/01 09:02:47;;;;;;;0.10;0.10;;;16.70;99.90;;;;;;5044764;28;20049;-76
2023/08/01 09:05:13;;;;;;;0.20;0.20;;;16.70;99.90;;;;;;5038238;28;20125;-76
2023/08/01 09:07:42;;;;;;;0.10;0.10;;;16.80;99.90;;;;;;5051211;28;20048;-78
2023/08/01 09:10:08;;;;;;;0.10;0.10;;;16.70;99.90;;;;;;5045500;28;20036;-77
2023/08/01 09:12:35;;;;;;;0.20;0.20;;;16.80;99.90;;;;;;5047808;28;20058;-76
2023/08/01 09:15:01;;;;;;;0.17;0.17;;;16.90;99.90;;;;;;5066253;28;20040;-78
2023/08/01 09:17:27;;;;;;;0.15;0.15;;;17.00;99.90;;;;;;5036079;28;20060;-78
2023/08/01 09:20:05;;;;;;;0.20;0.20;;;17.20;99.90;;;;;;5041391;28;20561;-78
2023/08/01 09:22:44;;;;;;;0.10;0.10;;;17.30;99.90;;;;;;5037441;28;20075;-78
2023/08/01 09:25:12;;;;;;;0.20;0.20;;;17.40;99.90;;;;;;5037968;28;20466;-77
2023/08/01 09:27:37;;;;;;;0.13;0.13;;;17.30;99.90;;;;;;5052039;28;20049;-78
2023/08/01 09:30:13;;;;;;;0.10;0.10;;;17.50;99.90;;;;;;5070102;28;20094;-77
2023/08/01 09:32:39;;;;;;;0.10;0.10;;;17.40;99.90;;;;;;5051362;28;20040;-76
2023/08/01 09:35:05;;;;;;;0.20;0.20;;;17.40;99.90;;;;;;5050401;28;20063;-79
2023/08/01 09:37:43;;;;;;;0.10;0.10;;;17.30;99.90;;;;;;5051289;28;20097;-78
2023/08/01 09:40:10;;;;;;;0.20;0.20;;;17.30;99.90;;;;;;5051833;28;20033;-78
2023/08/01 09:42:43;;;;;;;0.20;0.20;;;17.20;99.90;;;;;;5050831;28;20487;-79
2023/08/01 09:45:15;;;;;;;0.10;0.10;;;17.10;99.90;;;;;;5050694;28;20097;-79
2023/08/01 09:47:42;;;;;;;0.13;0.13;;;17.00;99.90;;;;;;5047824;28;20127;-78
2023/08/01 09:50:19;;;;;;;0.20;0.20;;;17.10;99.90;;;;;;5046104;28;20441;-77
2023/08/01 09:52:52;;;;;;;0.20;0.20;;;16.80;99.90;;;;;;5047682;28;20525;-76
2023/08/01 09:55:23;;;;;;;0.20;0.20;;;17.00;99.90;;;;;;5050964;28;20052;-77
2023/08/01 09:57:51;;;;;;;0.10;0.10;;;16.70;99.90;;;;;;5048475;28;20040;-77
2023/08/01 10:00:17;;;;;;;0.13;0.13;;;17.00;99.90;;;;;;5048176;28;20084;-78
2023/08/01 10:02:43;;;;;;;0.10;0.10;;;17.10;99.90;;;;;;5046338;28;20090;-79
2023/08/01 10:05:10;;;;;;;0.20;0.20;;;16.80;99.90;;;;;;5050589;28;20510;-80
2023/08/01 10:07:40;;;;;;;0.20;0.20;;;17.10;99.90;;;;;;5051440;28;20051;-77
2023/08/01 10:10:07;;;;;;;0.20;0.20;;;17.00;99.90;;;;;;5052459;28;20126;-83
2023/08/01 10:12:33;;;;;;;0.13;0.13;;;17.10;99.90;;;;;;5053149;28;20101;-82
2023/08/01 10:15:00;;;;;;;0.20;0.20;;;17.20;99.90;;;;;;5050306;28;20044;-83
2023/08/01 10:17:27;;;;;;;0.10;0.10;;;17.40;99.90;;;;;;5051453;28;20075;-81
2023/08/01 10:19:55;;;;;;;0.10;0.10;;;17.70;99.90;;;;;;5049925;28;20080;-83
2023/08/01 10:22:22;;;;;;;0.10;0.10;;;17.50;99.90;;;;;;5066110;28;20052;-81
2023/08/01 10:24:49;;;;;;;0.15;0.15;;;17.80;99.90;;;;;;5051345;28;20139;-82
2023/08/01 10:27:18;;;;;;;0.20;0.20;;;17.80;99.90;;;;;;5071150;28;20396;-81
2023/08/01 10:29:44;;;;;;;0.20;0.20;;;18.10;99.90;;;;;;5062966;28;20048;-84
2023/08/01 10:32:10;;;;;;;0.10;0.10;;;18.10;99.90;;;;;;5069337;28;20041;-84
2023/08/01 10:34:36;;;;;;;0.20;0.20;;;17.90;99.90;;;;;;5068920;28;20052;-85
2023/08/01 10:37:02;;;;;;;0.13;0.13;;;18.00;99.90;;;;;;5042848;28;20044;-85
2023/08/01 10:39:28;;;;;;;0.10;0.10;;;17.70;99.90;;;;;;5044686;28;20501;-85
2023/08/01 10:41:59;;;;;;;0.20;0.20;;;17.90;99.90;;;;;;5050508;28;20438;-86
2023/08/01 10:44:25;;;;;;;0.10;0.10;;;17.60;99.90;;;;;;5069053;28;20044;-84
2023/08/01 10:46:58;;;;;;;0.10;0.10;;;17.50;99.90;;;;;;5069453;28;20044;-85
2023/08/01 10:49:35;;;;;;;0.20;0.20;;;18.00;99.90;;;;;;5070223;28;20033;-84
2023/08/01 10:52:03;;;;;;;0.10;0.10;;;17.70;99.90;;;;;;5052002;28;20048;-86
2023/08/01 10:54:28;;;;;;;0.20;0.20;;;18.20;99.90;;;;;;5052382;28;20848;-86
2023/08/01 10:56:59;;;;;;;0.20;0.20;;;18.20;99.90;;;;;;5066422;28;20086;-83
2023/08/01 10:59:26;;;;;;;0.20;0.20;;;17.90;99.90;;;;;;5069005;28;20064;-83
2023/08/01 11:01:54;;;;;;;0.20;0.20;;;18.00;99.90;;;;;;5069333;28;20040;-82
2023/08/01 11:04:21;;;;;;;0.10;0.10;;;18.10;99.90;;;;;;5069511;28;20392;-82
2023/08/01 11:06:52;;;;;;;0.10;0.10;;;18.10;99.90;;;;;;5050561;28;20412;-81
2023/08/01 11:09:18;;;;;;;0.10;0.10;;;18.10;99.90;;;;;;5036171;28;20139;-81
2023/08/01 11:11:44;;;;;;;0.20;0.20;;;18.00;99.90;;;;;;5068999;28;20197;-81
2023/08/01 11:14:13;;;;;;;0.20;0.20;;;18.20;99.90;;;;;;5067903;28;20052;-82
2023/08/01 11:16:39;;;;;;;0.10;0.10;;;18.20;99.90;;;;;;5068159;28;20043;-82
2023/08/01 11:19:16;;;;;;;0.20;0.20;;;18.10;99.90;;;;;;5051651;28;20044;-82
2023/08/01 11:21:42;;;;;;;0.20;0.20;;;18.20;99.90;;;;;;5051402;28;20067;-83
2023/08/01 11:24:08;;;;;;;0.20;0.20;;;18.40;99.90;;;;;;5049638;28;20115;-83
2023/08/01 11:26:34;;;;;;;0.20;0.20;;;18.30;99.90;;;;;;5050764;28;20041;-84
2023/08/01 11:29:03;;;;;;;0.10;0.10;;;18.40;99.90;;;;;;5068462;28;20388;-81
2023/08/01 11:31:30;;;;;;;0.20;0.20;;;18.40;99.90;;;;;;5067365;28;20476;-81
2023/08/01 11:33:57;;;;;;;0.20;0.20;;;18.40;99.90;;;;;;5046079;28;20174;-81
2023/08/01 11:36:27;;;;;;;0.10;0.10;;;18.40;99.90;;;;;;5048978;28;20116;-82
2023/08/01 11:38:55;;;;;;;0.20;0.20;;;18.50;99.90;;;;;;5048875;28;20040;-83
2023/08/01 11:41:21;;;;;;;0.20;0.20;;;18.70;99.90;;;;;;5049895;28;20051;-84
2023/08/01 11:43:47;;;;;;;0.20;0.20;;;18.80;99.90;;;;;;5050994;28;20403;-83
2023/08/01 11:46:13;;;;;;;0.20;0.20;;;18.90;99.90;;;;;;5048314;28;20119;-82
2023/08/01 11:48:39;;;;;;;0.20;0.20;;;19.00;99.90;;;;;;5068201;28;20114;-84
2023/08/01 11:51:05;;;;;;;0.20;0.20;;;19.10;99.90;;;;;;5051788;28;20448;-83
2023/08/01 11:53:37;;;;;;;0.20;0.20;;;19.20;99.90;;;;;;5065865;28;20059;-82
2023/08/01 11:56:03;;;;;;;0.15;0.15;;;19.20;99.90;;;;;;5043759;28;20045;-82
2023/08/01 11:58:32;;;;;;;0.17;0.17;;;19.30;99.90;;;;;;5063044;28;20440;-83
2023/08/01 12:01:16;;;;;;;0.20;0.20;;;19.30;99.90;;;;;;5069203;28;20565;-84
2023/08/01 12:03:50;;;;;;;0.20;0.20;;;19.30;99.90;;;;;;5051403;28;20137;-83
2023/08/01 12:06:17;;;;;;;0.20;0.20;;;19.40;99.90;;;;;;5052302;28;20101;-83
2023/08/01 12:08:44;;;;;;;0.20;0.20;;;19.40;99.90;;;;;;5048256;28;20446;-84
2023/08/01 12:11:30;;;;;;;0.20;0.20;;;19.30;99.90;;;;;;5052725;28;20476;-85
2023/08/01 12:14:09;;;;;;;0.15;0.15;;;19.30;99.90;;;;;;5054840;28;20528;-83
2023/08/01 12:16:35;;;;;;;0.20;0.20;;;19.30;99.90;;;;;;5054758;28;20119;-82
2023/08/01 12:19:01;;;;;;;0.20;0.20;;;19.30;99.90;;;;;;5063815;28;20487;-84
2023/08/01 12:21:27;;;;;;;0.20;0.20;;;19.30;99.90;;;;;;5071403;28;20090;-85
2023/08/01 12:23:52;;;;;;;0.20;0.20;;;19.40;99.90;;;;;;5064159;28;20377;-84
2023/08/01 12:26:18;;;;;;;0.10;0.10;;;19.30;99.90;;;;;;5068431;28;20044;-84
2023/08/01 12:28:44;;;;;;;0.20;0.20;;;19.30;99.90;;;;;;5052880;28;20072;-84
2023/08/01 12:31:10;;;;;;;0.10;0.10;;;19.30;99.90;;;;;;5052196;28;20041;-84
2023/08/01 12:33:35;;;;;;;0.20;0.20;;;19.20;99.90;;;;;;5054680;28;20187;-84
2023/08/01 12:36:04;;;;;;;0.20;0.20;;;19.30;99.90;;;;;;5072409;28;20048;-85
2023/08/01 12:38:30;;;;;;;0.20;0.20;;;19.30;99.90;;;;;;5051295;28;20052;-84
2023/08/01 12:40:55;;;;;;;0.20;0.20;;;19.30;99.90;;;;;;5037617;28;20045;-85
2023/08/01 12:43:21;;;;;;;0.20;0.20;;;19.30;99.90;;;;;;5052995;28;20068;-87
2023/08/01 12:45:48;;;;;;;0.20;0.20;;;19.40;99.90;;;;;;5052164;28;20037;-83